sensor_id;sensor_type;location;lat;lon;timestamp;P1;durP1;ratioP1;P2;durP2;ratioP2
30571;SDS011;17348;50.948;10.696;2023-08-20T00:02:16;12.45;;;4.53;;
30571;SDS011;17348;50.948;10.696;2023-08-20T00:05:21;9.77;;;4.20;;
30571;SDS011;17348;50.948;10.696;2023-08-20T00:08:25;13.45;;;4.50;;
30571;SDS011;17348;50.948;10.696;2023-08-20T00:11:27;14.77;;;5.10;;
30571;SDS011;17348;50.948;10.696;2023-08-20T00:17:54;10.27;;;5.20;;
30571;SDS011;17348;50.948;10.696;2023-08-20T00:20:57;12.07;;;4.82;;
30571;SDS011;17348;50.948;10.696;2023-08-20T00:24:01;9.73;;;4.20;;
30571;SDS011;17348;50.948;10.696;2023-08-20T00:27:04;7.05;;;4.80;;
30571;SDS011;17348;50.948;10.696;2023-08-20T00:30:07;9.10;;;4.72;;
30571;SDS011;17348;50.948;10.696;2023-08-20T00:33:10;15.90;;;4.90;;
30571;SDS011;17348;50.948;10.696;2023-08-20T00:36:12;9.13;;;4.55;;
30571;SDS011;17348;50.948;10.696;2023-08-20T00:39:16;9.02;;;3.97;;
30571;SDS011;17348;50.948;10.696;2023-08-20T00:42:18;14.40;;;4.32;;
30571;SDS011;17348;50.948;10.696;2023-08-20T00:45:21;5.68;;;4.38;;
30571;SDS011;17348;50.948;10.696;2023-08-20T00:48:24;9.68;;;4.93;;
30571;SDS011;17348;50.948;10.696;2023-08-20T00:51:26;8.02;;;4.53;;
30571;SDS011;17348;50.948;10.696;2023-08-20T00:54:31;8.13;;;4.78;;
30571;SDS011;17348;50.948;10.696;2023-08-20T00:57:34;8.43;;;4.93;;
30571;SDS011;17348;50.948;10.696;2023-08-20T01:00:37;11.82;;;4.70;;
30571;SDS011;17348;50.948;10.696;2023-08-20T01:03:39;11.60;;;5.07;;
30571;SDS011;17348;50.948;10.696;2023-08-20T01:06:44;11.43;;;5.78;;
30571;SDS011;17348;50.948;10.696;2023-08-20T01:13:10;7.60;;;4.88;;
30571;SDS011;17348;50.948;10.696;2023-08-20T01:16:13;9.27;;;5.15;;
30571;SDS011;17348;50.948;10.696;2023-08-20T01:19:16;12.75;;;4.93;;
30571;SDS011;17348;50.948;10.696;2023-08-20T01:22:35;8.50;;;4.95;;
30571;SDS011;17348;50.948;10.696;2023-08-20T01:25:59;12.70;;;5.78;;
30571;SDS011;17348;50.948;10.696;2023-08-20T01:29:19;14.07;;;5.60;;
30571;SDS011;17348;50.948;10.696;2023-08-20T01:32:22;7.97;;;5.57;;
30571;SDS011;17348;50.948;10.696;2023-08-20T01:35:25;13.82;;;6.55;;
30571;SDS011;17348;50.948;10.696;2023-08-20T01:38:28;14.98;;;5.82;;
30571;SDS011;17348;50.948;10.696;2023-08-20T01:41:30;13.93;;;6.38;;
30571;SDS011;17348;50.948;10.696;2023-08-20T01:44:34;10.50;;;5.88;;
30571;SDS011;17348;50.948;10.696;2023-08-20T01:47:36;8.23;;;5.80;;
30571;SDS011;17348;50.948;10.696;2023-08-20T01:50:39;10.98;;;6.47;;
30571;SDS011;17348;50.948;10.696;2023-08-20T01:53:41;12.82;;;5.50;;
30571;SDS011;17348;50.948;10.696;2023-08-20T01:56:43;10.00;;;6.50;;
30571;SDS011;17348;50.948;10.696;2023-08-20T01:59:48;11.85;;;6.40;;
30571;SDS011;17348;50.948;10.696;2023-08-20T02:02:50;13.13;;;6.20;;
30571;SDS011;17348;50.948;10.696;2023-08-20T02:05:53;11.23;;;6.35;;
30571;SDS011;17348;50.948;10.696;2023-08-20T02:08:55;17.10;;;6.78;;
30571;SDS011;17348;50.948;10.696;2023-08-20T02:11:58;9.93;;;6.57;;
30571;SDS011;17348;50.948;10.696;2023-08-20T02:15:01;15.13;;;6.97;;
30571;SDS011;17348;50.948;10.696;2023-08-20T02:18:05;16.60;;;7.38;;
30571;SDS011;17348;50.948;10.696;2023-08-20T02:21:09;10.98;;;6.43;;
30571;SDS011;17348;50.948;10.696;2023-08-20T02:24:11;9.77;;;6.60;;
30571;SDS011;17348;50.948;10.696;2023-08-20T02:27:13;12.88;;;7.38;;
30571;SDS011;17348;50.948;10.696;2023-08-20T02:30:17;11.88;;;6.88;;
30571;SDS011;17348;50.948;10.696;2023-08-20T02:33:19;11.20;;;6.65;;
30571;SDS011;17348;50.948;10.696;2023-08-20T02:36:21;9.80;;;6.82;;
30571;SDS011;17348;50.948;10.696;2023-08-20T02:39:24;11.63;;;6.85;;
30571;SDS011;17348;50.948;10.696;2023-08-20T02:42:26;15.75;;;7.47;;
30571;SDS011;17348;50.948;10.696;2023-08-20T02:45:30;13.25;;;7.40;;
30571;SDS011;17348;50.948;10.696;2023-08-20T02:48:32;10.05;;;6.90;;
30571;SDS011;17348;50.948;10.696;2023-08-20T02:51:34;21.33;;;6.90;;
30571;SDS011;17348;50.948;10.696;2023-08-20T02:54:37;13.60;;;7.00;;
30571;SDS011;17348;50.948;10.696;2023-08-20T02:57:39;16.13;;;7.15;;
30571;SDS011;17348;50.948;10.696;2023-08-20T03:00:43;12.05;;;7.15;;
30571;SDS011;17348;50.948;10.696;2023-08-20T03:03:45;10.82;;;6.40;;
30571;SDS011;17348;50.948;10.696;2023-08-20T03:06:47;12.23;;;7.40;;
30571;SDS011;17348;50.948;10.696;2023-08-20T03:09:50;12.80;;;6.95;;
30571;SDS011;17348;50.948;10.696;2023-08-20T03:12:52;10.07;;;7.05;;
30571;SDS011;17348;50.948;10.696;2023-08-20T03:15:56;22.85;;;7.40;;
30571;SDS011;17348;50.948;10.696;2023-08-20T03:18:58;12.63;;;8.00;;
30571;SDS011;17348;50.948;10.696;2023-08-20T03:22:00;13.43;;;7.40;;
30571;SDS011;17348;50.948;10.696;2023-08-20T03:25:03;10.18;;;6.82;;
30571;SDS011;17348;50.948;10.696;2023-08-20T03:28:06;13.23;;;8.00;;
30571;SDS011;17348;50.948;10.696;2023-08-20T03:31:10;13.80;;;7.15;;
30571;SDS011;17348;50.948;10.696;2023-08-20T03:34:12;12.55;;;8.50;;
30571;SDS011;17348;50.948;10.696;2023-08-20T03:37:15;11.65;;;7.25;;
30571;SDS011;17348;50.948;10.696;2023-08-20T03:40:17;15.70;;;8.10;;
30571;SDS011;17348;50.948;10.696;2023-08-20T03:43:21;11.00;;;7.70;;
30571;SDS011;17348;50.948;10.696;2023-08-20T03:46:25;9.98;;;7.32;;
30571;SDS011;17348;50.948;10.696;2023-08-20T03:49:27;17.45;;;8.25;;
30571;SDS011;17348;50.948;10.696;2023-08-20T03:52:29;12.30;;;7.72;;
30571;SDS011;17348;50.948;10.696;2023-08-20T03:55:32;17.63;;;8.25;;
30571;SDS011;17348;50.948;10.696;2023-08-20T03:58:37;15.23;;;7.78;;
30571;SDS011;17348;50.948;10.696;2023-08-20T04:01:41;16.15;;;7.30;;
30571;SDS011;17348;50.948;10.696;2023-08-20T04:04:44;14.82;;;8.05;;
30571;SDS011;17348;50.948;10.696;2023-08-20T04:07:46;13.27;;;7.55;;
30571;SDS011;17348;50.948;10.696;2023-08-20T04:10:48;13.25;;;7.80;;
30571;SDS011;17348;50.948;10.696;2023-08-20T04:13:51;12.82;;;7.95;;
30571;SDS011;17348;50.948;10.696;2023-08-20T04:16:57;15.60;;;7.93;;
30571;SDS011;17348;50.948;10.696;2023-08-20T04:20:00;12.73;;;8.00;;
30571;SDS011;17348;50.948;10.696;2023-08-20T04:23:05;12.15;;;7.38;;
30571;SDS011;17348;50.948;10.696;2023-08-20T04:26:08;11.02;;;7.38;;
30571;SDS011;17348;50.948;10.696;2023-08-20T04:29:10;13.20;;;7.88;;
30571;SDS011;17348;50.948;10.696;2023-08-20T04:32:15;16.15;;;8.00;;
30571;SDS011;17348;50.948;10.696;2023-08-20T04:35:17;10.65;;;7.05;;
30571;SDS011;17348;50.948;10.696;2023-08-20T04:38:20;16.60;;;7.53;;
30571;SDS011;17348;50.948;10.696;2023-08-20T04:41:22;10.63;;;8.18;;
30571;SDS011;17348;50.948;10.696;2023-08-20T04:44:24;14.85;;;7.90;;
30571;SDS011;17348;50.948;10.696;2023-08-20T04:47:28;19.50;;;7.50;;
30571;SDS011;17348;50.948;10.696;2023-08-20T04:50:31;15.43;;;7.88;;
30571;SDS011;17348;50.948;10.696;2023-08-20T04:53:33;14.68;;;7.70;;
30571;SDS011;17348;50.948;10.696;2023-08-20T04:56:35;13.75;;;7.63;;
30571;SDS011;17348;50.948;10.696;2023-08-20T04:59:38;13.88;;;7.72;;
30571;SDS011;17348;50.948;10.696;2023-08-20T05:02:41;13.20;;;7.97;;
30571;SDS011;17348;50.948;10.696;2023-08-20T05:05:47;16.50;;;9.07;;
30571;SDS011;17348;50.948;10.696;2023-08-20T05:08:50;11.85;;;7.43;;
30571;SDS011;17348;50.948;10.696;2023-08-20T05:11:52;13.20;;;7.72;;
30571;SDS011;17348;50.948;10.696;2023-08-20T05:14:55;13.85;;;8.27;;
30571;SDS011;17348;50.948;10.696;2023-08-20T05:17:58;16.67;;;8.50;;
30571;SDS011;17348;50.948;10.696;2023-08-20T05:21:01;14.52;;;7.97;;
30571;SDS011;17348;50.948;10.696;2023-08-20T05:24:03;15.25;;;8.25;;
30571;SDS011;17348;50.948;10.696;2023-08-20T05:27:07;16.20;;;8.32;;
30571;SDS011;17348;50.948;10.696;2023-08-20T05:30:13;11.00;;;7.30;;
30571;SDS011;17348;50.948;10.696;2023-08-20T05:33:16;13.73;;;7.85;;
30571;SDS011;17348;50.948;10.696;2023-08-20T05:36:18;13.57;;;8.32;;
30571;SDS011;17348;50.948;10.696;2023-08-20T05:39:21;12.93;;;8.02;;
30571;SDS011;17348;50.948;10.696;2023-08-20T05:42:24;11.70;;;7.95;;
30571;SDS011;17348;50.948;10.696;2023-08-20T05:45:29;23.95;;;8.20;;
30571;SDS011;17348;50.948;10.696;2023-08-20T05:48:33;17.58;;;8.48;;
30571;SDS011;17348;50.948;10.696;2023-08-20T05:51:35;14.23;;;7.63;;
30571;SDS011;17348;50.948;10.696;2023-08-20T05:54:37;13.05;;;8.30;;
30571;SDS011;17348;50.948;10.696;2023-08-20T05:57:39;20.70;;;7.88;;
30571;SDS011;17348;50.948;10.696;2023-08-20T06:00:43;15.27;;;8.88;;
30571;SDS011;17348;50.948;10.696;2023-08-20T06:03:47;13.88;;;9.07;;
30571;SDS011;17348;50.948;10.696;2023-08-20T06:06:49;14.73;;;8.77;;
30571;SDS011;17348;50.948;10.696;2023-08-20T06:09:51;14.35;;;8.63;;
30571;SDS011;17348;50.948;10.696;2023-08-20T06:12:54;12.50;;;8.65;;
30571;SDS011;17348;50.948;10.696;2023-08-20T06:15:57;25.63;;;11.27;;
30571;SDS011;17348;50.948;10.696;2023-08-20T06:19:01;15.95;;;10.02;;
30571;SDS011;17348;50.948;10.696;2023-08-20T06:22:03;17.55;;;10.10;;
30571;SDS011;17348;50.948;10.696;2023-08-20T06:25:06;22.80;;;12.40;;
30571;SDS011;17348;50.948;10.696;2023-08-20T06:28:09;20.23;;;11.00;;
30571;SDS011;17348;50.948;10.696;2023-08-20T06:31:11;22.65;;;11.27;;
30571;SDS011;17348;50.948;10.696;2023-08-20T06:34:17;27.05;;;13.25;;
30571;SDS011;17348;50.948;10.696;2023-08-20T06:37:19;23.63;;;10.93;;
30571;SDS011;17348;50.948;10.696;2023-08-20T06:40:21;16.63;;;11.55;;
30571;SDS011;17348;50.948;10.696;2023-08-20T06:43:24;22.00;;;10.95;;
30571;SDS011;17348;50.948;10.696;2023-08-20T06:46:26;22.90;;;10.70;;
30571;SDS011;17348;50.948;10.696;2023-08-20T06:49:30;18.02;;;9.90;;
30571;SDS011;17348;50.948;10.696;2023-08-20T06:52:32;15.20;;;9.88;;
30571;SDS011;17348;50.948;10.696;2023-08-20T06:55:34;17.15;;;9.82;;
30571;SDS011;17348;50.948;10.696;2023-08-20T07:01:42;17.65;;;10.95;;
30571;SDS011;17348;50.948;10.696;2023-08-20T07:04:46;16.17;;;10.40;;
30571;SDS011;17348;50.948;10.696;2023-08-20T07:07:48;22.25;;;10.45;;
30571;SDS011;17348;50.948;10.696;2023-08-20T07:10:51;16.27;;;9.15;;
30571;SDS011;17348;50.948;10.696;2023-08-20T07:13:53;18.00;;;9.45;;
30571;SDS011;17348;50.948;10.696;2023-08-20T07:16:55;21.13;;;9.60;;
30571;SDS011;17348;50.948;10.696;2023-08-20T07:19:59;15.73;;;8.95;;
30571;SDS011;17348;50.948;10.696;2023-08-20T07:23:01;15.65;;;9.10;;
30571;SDS011;17348;50.948;10.696;2023-08-20T07:26:04;17.05;;;9.25;;
30571;SDS011;17348;50.948;10.696;2023-08-20T07:29:08;12.57;;;8.27;;
30571;SDS011;17348;50.948;10.696;2023-08-20T07:32:10;17.42;;;9.48;;
30571;SDS011;17348;50.948;10.696;2023-08-20T07:35:14;14.98;;;8.02;;
30571;SDS011;17348;50.948;10.696;2023-08-20T07:38:17;11.95;;;8.43;;
30571;SDS011;17348;50.948;10.696;2023-08-20T07:41:19;13.82;;;9.00;;
30571;SDS011;17348;50.948;10.696;2023-08-20T07:44:22;14.45;;;8.35;;
30571;SDS011;17348;50.948;10.696;2023-08-20T07:47:24;22.52;;;8.20;;
30571;SDS011;17348;50.948;10.696;2023-08-20T07:50:30;18.05;;;8.40;;
30571;SDS011;17348;50.948;10.696;2023-08-20T07:53:33;13.75;;;8.50;;
30571;SDS011;17348;50.948;10.696;2023-08-20T07:56:35;10.77;;;7.15;;
30571;SDS011;17348;50.948;10.696;2023-08-20T07:59:38;12.05;;;6.95;;
30571;SDS011;17348;50.948;10.696;2023-08-20T08:02:40;12.90;;;6.28;;
30571;SDS011;17348;50.948;10.696;2023-08-20T08:05:46;17.40;;;6.78;;
30571;SDS011;17348;50.948;10.696;2023-08-20T08:08:49;16.73;;;7.03;;
30571;SDS011;17348;50.948;10.696;2023-08-20T08:11:51;12.98;;;7.30;;
30571;SDS011;17348;50.948;10.696;2023-08-20T08:14:54;12.40;;;7.13;;
30571;SDS011;17348;50.948;10.696;2023-08-20T08:17:56;13.95;;;8.70;;
30571;SDS011;17348;50.948;10.696;2023-08-20T08:21:00;16.48;;;8.48;;
30571;SDS011;17348;50.948;10.696;2023-08-20T08:24:02;14.57;;;9.05;;
30571;SDS011;17348;50.948;10.696;2023-08-20T08:27:05;15.43;;;10.02;;
30571;SDS011;17348;50.948;10.696;2023-08-20T08:30:07;19.73;;;9.35;;
30571;SDS011;17348;50.948;10.696;2023-08-20T08:33:10;15.57;;;8.80;;
30571;SDS011;17348;50.948;10.696;2023-08-20T08:36:14;16.63;;;9.93;;
30571;SDS011;17348;50.948;10.696;2023-08-20T08:39:17;19.23;;;11.07;;
30571;SDS011;17348;50.948;10.696;2023-08-20T08:42:19;25.90;;;12.40;;
30571;SDS011;17348;50.948;10.696;2023-08-20T08:45:25;19.75;;;10.15;;
30571;SDS011;17348;50.948;10.696;2023-08-20T08:48:28;18.13;;;10.95;;
30571;SDS011;17348;50.948;10.696;2023-08-20T08:51:32;23.17;;;11.20;;
30571;SDS011;17348;50.948;10.696;2023-08-20T08:54:36;23.85;;;10.55;;
30571;SDS011;17348;50.948;10.696;2023-08-20T08:57:38;17.58;;;10.38;;
30571;SDS011;17348;50.948;10.696;2023-08-20T09:00:41;19.27;;;11.38;;
30571;SDS011;17348;50.948;10.696;2023-08-20T09:03:43;19.80;;;10.35;;
30571;SDS011;17348;50.948;10.696;2023-08-20T09:06:47;22.20;;;10.07;;
30571;SDS011;17348;50.948;10.696;2023-08-20T09:09:50;17.23;;;11.00;;
30571;SDS011;17348;50.948;10.696;2023-08-20T09:12:53;21.83;;;10.40;;
30571;SDS011;17348;50.948;10.696;2023-08-20T09:15:57;18.80;;;11.27;;
30571;SDS011;17348;50.948;10.696;2023-08-20T09:19:00;16.13;;;11.10;;
30571;SDS011;17348;50.948;10.696;2023-08-20T09:22:04;18.80;;;11.50;;
30571;SDS011;17348;50.948;10.696;2023-08-20T09:25:06;21.30;;;12.02;;
30571;SDS011;17348;50.948;10.696;2023-08-20T09:28:17;21.77;;;11.90;;
30571;SDS011;17348;50.948;10.696;2023-08-20T09:31:19;21.98;;;11.20;;
30571;SDS011;17348;50.948;10.696;2023-08-20T09:34:22;22.73;;;12.30;;
30571;SDS011;17348;50.948;10.696;2023-08-20T09:37:25;23.05;;;13.55;;
30571;SDS011;17348;50.948;10.696;2023-08-20T09:40:28;23.80;;;11.68;;
30571;SDS011;17348;50.948;10.696;2023-08-20T09:43:31;16.90;;;11.23;;
30571;SDS011;17348;50.948;10.696;2023-08-20T09:46:36;27.77;;;11.30;;
30571;SDS011;17348;50.948;10.696;2023-08-20T09:49:40;20.08;;;12.38;;
30571;SDS011;17348;50.948;10.696;2023-08-20T09:52:47;20.92;;;12.73;;
30571;SDS011;17348;50.948;10.696;2023-08-20T09:56:00;16.58;;;11.25;;
30571;SDS011;17348;50.948;10.696;2023-08-20T09:59:07;23.73;;;11.73;;
30571;SDS011;17348;50.948;10.696;2023-08-20T10:02:11;21.25;;;11.95;;
30571;SDS011;17348;50.948;10.696;2023-08-20T10:05:15;21.20;;;11.35;;
30571;SDS011;17348;50.948;10.696;2023-08-20T10:08:19;16.80;;;11.88;;
30571;SDS011;17348;50.948;10.696;2023-08-20T10:11:21;17.60;;;11.38;;
30571;SDS011;17348;50.948;10.696;2023-08-20T10:14:24;22.88;;;12.60;;
30571;SDS011;17348;50.948;10.696;2023-08-20T10:17:28;20.80;;;12.95;;
30571;SDS011;17348;50.948;10.696;2023-08-20T10:20:31;26.80;;;12.82;;
30571;SDS011;17348;50.948;10.696;2023-08-20T10:23:35;29.75;;;12.80;;
30571;SDS011;17348;50.948;10.696;2023-08-20T10:26:41;21.23;;;11.80;;
30571;SDS011;17348;50.948;10.696;2023-08-20T10:29:44;20.55;;;13.05;;
30571;SDS011;17348;50.948;10.696;2023-08-20T10:32:48;26.98;;;11.55;;
30571;SDS011;17348;50.948;10.696;2023-08-20T10:35:51;20.20;;;12.63;;
30571;SDS011;17348;50.948;10.696;2023-08-20T10:38:56;18.95;;;12.98;;
30571;SDS011;17348;50.948;10.696;2023-08-20T10:42:24;22.75;;;12.20;;
30571;SDS011;17348;50.948;10.696;2023-08-20T10:45:27;16.30;;;11.57;;
30571;SDS011;17348;50.948;10.696;2023-08-20T10:48:30;22.85;;;11.60;;
30571;SDS011;17348;50.948;10.696;2023-08-20T10:51:35;23.05;;;11.10;;
30571;SDS011;17348;50.948;10.696;2023-08-20T10:54:40;17.50;;;11.23;;
30571;SDS011;17348;50.948;10.696;2023-08-20T10:57:42;18.55;;;10.93;;
30571;SDS011;17348;50.948;10.696;2023-08-20T11:00:46;17.15;;;10.55;;
30571;SDS011;17348;50.948;10.696;2023-08-20T11:04:22;19.98;;;10.07;;
30571;SDS011;17348;50.948;10.696;2023-08-20T11:07:27;17.48;;;10.85;;
30571;SDS011;17348;50.948;10.696;2023-08-20T11:10:32;19.65;;;11.07;;
30571;SDS011;17348;50.948;10.696;2023-08-20T11:13:35;17.63;;;11.05;;
30571;SDS011;17348;50.948;10.696;2023-08-20T11:16:38;18.40;;;10.45;;
30571;SDS011;17348;50.948;10.696;2023-08-20T11:19:40;17.52;;;10.75;;
30571;SDS011;17348;50.948;10.696;2023-08-20T11:22:42;18.48;;;11.07;;
30571;SDS011;17348;50.948;10.696;2023-08-20T11:25:46;19.33;;;10.13;;
30571;SDS011;17348;50.948;10.696;2023-08-20T11:28:48;20.15;;;10.50;;
30571;SDS011;17348;50.948;10.696;2023-08-20T11:31:51;17.48;;;10.75;;
30571;SDS011;17348;50.948;10.696;2023-08-20T11:34:54;18.85;;;10.90;;
30571;SDS011;17348;50.948;10.696;2023-08-20T11:37:56;15.63;;;9.68;;
30571;SDS011;17348;50.948;10.696;2023-08-20T11:41:01;18.45;;;10.73;;
30571;SDS011;17348;50.948;10.696;2023-08-20T11:44:03;19.10;;;11.10;;
30571;SDS011;17348;50.948;10.696;2023-08-20T11:47:12;16.55;;;10.25;;
30571;SDS011;17348;50.948;10.696;2023-08-20T11:50:15;16.13;;;9.93;;
30571;SDS011;17348;50.948;10.696;2023-08-20T11:53:21;16.85;;;10.25;;
30571;SDS011;17348;50.948;10.696;2023-08-20T11:56:26;15.48;;;10.70;;
30571;SDS011;17348;50.948;10.696;2023-08-20T11:59:33;13.52;;;9.57;;
30571;SDS011;17348;50.948;10.696;2023-08-20T12:02:41;15.93;;;9.65;;
30571;SDS011;17348;50.948;10.696;2023-08-20T12:05:54;15.95;;;8.95;;
30571;SDS011;17348;50.948;10.696;2023-08-20T12:09:00;14.25;;;9.32;;
30571;SDS011;17348;50.948;10.696;2023-08-20T12:12:26;16.77;;;9.52;;
30571;SDS011;17348;50.948;10.696;2023-08-20T12:15:34;15.45;;;10.60;;
30571;SDS011;17348;50.948;10.696;2023-08-20T12:18:45;16.88;;;10.00;;
30571;SDS011;17348;50.948;10.696;2023-08-20T12:21:51;15.48;;;9.82;;
30571;SDS011;17348;50.948;10.696;2023-08-20T12:24:58;13.27;;;9.70;;
30571;SDS011;17348;50.948;10.696;2023-08-20T12:28:02;13.18;;;9.88;;
30571;SDS011;17348;50.948;10.696;2023-08-20T12:31:06;17.92;;;10.02;;
30571;SDS011;17348;50.948;10.696;2023-08-20T12:34:08;15.15;;;9.38;;
30571;SDS011;17348;50.948;10.696;2023-08-20T12:37:11;20.13;;;10.48;;
30571;SDS011;17348;50.948;10.696;2023-08-20T12:40:13;12.75;;;8.68;;
30571;SDS011;17348;50.948;10.696;2023-08-20T12:43:17;13.50;;;9.75;;
30571;SDS011;17348;50.948;10.696;2023-08-20T12:46:20;16.98;;;9.40;;
30571;SDS011;17348;50.948;10.696;2023-08-20T12:49:23;21.52;;;9.43;;
30571;SDS011;17348;50.948;10.696;2023-08-20T12:52:25;19.90;;;9.13;;
30571;SDS011;17348;50.948;10.696;2023-08-20T12:55:28;15.00;;;10.15;;
30571;SDS011;17348;50.948;10.696;2023-08-20T12:58:36;13.48;;;8.68;;
30571;SDS011;17348;50.948;10.696;2023-08-20T13:01:42;23.52;;;10.35;;
30571;SDS011;17348;50.948;10.696;2023-08-20T13:04:53;13.05;;;9.80;;
30571;SDS011;17348;50.948;10.696;2023-08-20T13:07:56;16.40;;;9.23;;
30571;SDS011;17348;50.948;10.696;2023-08-20T13:10:58;10.77;;;8.35;;
30571;SDS011;17348;50.948;10.696;2023-08-20T13:14:06;14.02;;;8.85;;
30571;SDS011;17348;50.948;10.696;2023-08-20T13:17:09;16.75;;;8.95;;
30571;SDS011;17348;50.948;10.696;2023-08-20T13:20:11;21.90;;;8.43;;
30571;SDS011;17348;50.948;10.696;2023-08-20T13:23:14;15.13;;;8.68;;
30571;SDS011;17348;50.948;10.696;2023-08-20T13:26:17;19.10;;;9.25;;
30571;SDS011;17348;50.948;10.696;2023-08-20T13:29:22;14.35;;;9.43;;
30571;SDS011;17348;50.948;10.696;2023-08-20T13:32:24;15.88;;;9.07;;
30571;SDS011;17348;50.948;10.696;2023-08-20T13:35:26;11.80;;;7.85;;
30571;SDS011;17348;50.948;10.696;2023-08-20T13:38:29;12.55;;;8.93;;
30571;SDS011;17348;50.948;10.696;2023-08-20T13:41:32;13.60;;;8.93;;
30571;SDS011;17348;50.948;10.696;2023-08-20T13:44:36;16.27;;;8.95;;
30571;SDS011;17348;50.948;10.696;2023-08-20T13:47:38;13.73;;;8.98;;
30571;SDS011;17348;50.948;10.696;2023-08-20T13:50:40;14.65;;;8.25;;
30571;SDS011;17348;50.948;10.696;2023-08-20T13:53:43;15.35;;;8.68;;
30571;SDS011;17348;50.948;10.696;2023-08-20T13:56:45;17.75;;;8.60;;
30571;SDS011;17348;50.948;10.696;2023-08-20T13:59:49;11.13;;;7.68;;
30571;SDS011;17348;50.948;10.696;2023-08-20T14:02:51;13.82;;;8.82;;
30571;SDS011;17348;50.948;10.696;2023-08-20T14:05:54;12.90;;;8.40;;
30571;SDS011;17348;50.948;10.696;2023-08-20T14:08:56;13.18;;;9.13;;
30571;SDS011;17348;50.948;10.696;2023-08-20T14:11:58;21.70;;;8.55;;
30571;SDS011;17348;50.948;10.696;2023-08-20T14:15:02;19.25;;;8.40;;
30571;SDS011;17348;50.948;10.696;2023-08-20T14:18:04;11.00;;;8.30;;
30571;SDS011;17348;50.948;10.696;2023-08-20T14:21:07;12.93;;;8.48;;
30571;SDS011;17348;50.948;10.696;2023-08-20T14:24:09;19.83;;;8.82;;
30571;SDS011;17348;50.948;10.696;2023-08-20T14:27:12;16.90;;;9.35;;
30571;SDS011;17348;50.948;10.696;2023-08-20T14:30:15;11.18;;;7.88;;
30571;SDS011;17348;50.948;10.696;2023-08-20T14:33:19;17.13;;;7.90;;
30571;SDS011;17348;50.948;10.696;2023-08-20T14:36:21;16.02;;;8.75;;
30571;SDS011;17348;50.948;10.696;2023-08-20T14:39:23;21.15;;;9.05;;
30571;SDS011;17348;50.948;10.696;2023-08-20T14:42:26;18.60;;;8.63;;
30571;SDS011;17348;50.948;10.696;2023-08-20T14:45:29;23.23;;;8.55;;
30571;SDS011;17348;50.948;10.696;2023-08-20T14:48:32;12.30;;;7.95;;
30571;SDS011;17348;50.948;10.696;2023-08-20T14:51:35;11.93;;;8.52;;
30571;SDS011;17348;50.948;10.696;2023-08-20T14:54:37;13.50;;;8.98;;
30571;SDS011;17348;50.948;10.696;2023-08-20T14:57:42;13.98;;;8.18;;
30571;SDS011;17348;50.948;10.696;2023-08-20T15:00:45;14.30;;;8.85;;
30571;SDS011;17348;50.948;10.696;2023-08-20T15:03:50;14.70;;;8.75;;
30571;SDS011;17348;50.948;10.696;2023-08-20T15:06:53;15.90;;;8.48;;
30571;SDS011;17348;50.948;10.696;2023-08-20T15:09:55;13.90;;;7.47;;
30571;SDS011;17348;50.948;10.696;2023-08-20T15:12:57;15.23;;;8.73;;
30571;SDS011;17348;50.948;10.696;2023-08-20T15:16:01;23.52;;;8.43;;
30571;SDS011;17348;50.948;10.696;2023-08-20T15:19:04;16.52;;;9.13;;
30571;SDS011;17348;50.948;10.696;2023-08-20T15:22:06;18.80;;;8.27;;
30571;SDS011;17348;50.948;10.696;2023-08-20T15:25:08;20.13;;;8.82;;
30571;SDS011;17348;50.948;10.696;2023-08-20T15:28:11;13.68;;;8.38;;
30571;SDS011;17348;50.948;10.696;2023-08-20T15:31:15;13.50;;;8.63;;
30571;SDS011;17348;50.948;10.696;2023-08-20T15:34:17;15.93;;;8.40;;
30571;SDS011;17348;50.948;10.696;2023-08-20T15:37:19;12.05;;;7.97;;
30571;SDS011;17348;50.948;10.696;2023-08-20T15:40:22;12.50;;;8.13;;
30571;SDS011;17348;50.948;10.696;2023-08-20T15:43:24;16.13;;;8.50;;
30571;SDS011;17348;50.948;10.696;2023-08-20T15:46:28;15.95;;;8.23;;
30571;SDS011;17348;50.948;10.696;2023-08-20T15:49:30;16.55;;;9.45;;
30571;SDS011;17348;50.948;10.696;2023-08-20T15:52:32;17.58;;;8.55;;
30571;SDS011;17348;50.948;10.696;2023-08-20T15:55:35;15.43;;;8.48;;
30571;SDS011;17348;50.948;10.696;2023-08-20T15:58:37;12.60;;;8.27;;
30571;SDS011;17348;50.948;10.696;2023-08-20T16:01:41;16.65;;;8.20;;
30571;SDS011;17348;50.948;10.696;2023-08-20T16:04:43;21.25;;;8.73;;
30571;SDS011;17348;50.948;10.696;2023-08-20T16:07:46;15.10;;;7.28;;
30571;SDS011;17348;50.948;10.696;2023-08-20T16:10:51;12.05;;;8.07;;
30571;SDS011;17348;50.948;10.696;2023-08-20T16:13:54;16.80;;;9.02;;
30571;SDS011;17348;50.948;10.696;2023-08-20T16:16:57;23.10;;;8.77;;
30571;SDS011;17348;50.948;10.696;2023-08-20T16:20:00;12.50;;;7.75;;
30571;SDS011;17348;50.948;10.696;2023-08-20T16:23:03;13.70;;;8.65;;
30571;SDS011;17348;50.948;10.696;2023-08-20T16:26:05;18.15;;;8.55;;
30571;SDS011;17348;50.948;10.696;2023-08-20T16:29:08;13.55;;;8.35;;
30571;SDS011;17348;50.948;10.696;2023-08-20T16:32:14;15.32;;;6.97;;
30571;SDS011;17348;50.948;10.696;2023-08-20T16:35:17;14.95;;;7.05;;
30571;SDS011;17348;50.948;10.696;2023-08-20T16:38:19;21.30;;;8.00;;
30571;SDS011;17348;50.948;10.696;2023-08-20T16:41:22;22.25;;;8.48;;
30571;SDS011;17348;50.948;10.696;2023-08-20T16:44:25;11.50;;;7.32;;
30571;SDS011;17348;50.948;10.696;2023-08-20T16:47:28;17.77;;;8.55;;
30571;SDS011;17348;50.948;10.696;2023-08-20T16:50:31;9.70;;;7.68;;
30571;SDS011;17348;50.948;10.696;2023-08-20T16:53:34;12.35;;;8.25;;
30571;SDS011;17348;50.948;10.696;2023-08-20T16:56:36;15.02;;;8.00;;
30571;SDS011;17348;50.948;10.696;2023-08-20T16:59:38;11.00;;;7.55;;
30571;SDS011;17348;50.948;10.696;2023-08-20T17:02:43;12.93;;;7.80;;
30571;SDS011;17348;50.948;10.696;2023-08-20T17:05:45;13.48;;;7.47;;
30571;SDS011;17348;50.948;10.696;2023-08-20T17:08:47;22.73;;;7.85;;
30571;SDS011;17348;50.948;10.696;2023-08-20T17:11:50;13.27;;;7.63;;
30571;SDS011;17348;50.948;10.696;2023-08-20T17:14:52;11.60;;;8.23;;
30571;SDS011;17348;50.948;10.696;2023-08-20T17:17:56;13.75;;;8.02;;
30571;SDS011;17348;50.948;10.696;2023-08-20T17:20:58;19.85;;;8.30;;
30571;SDS011;17348;50.948;10.696;2023-08-20T17:24:01;18.13;;;7.50;;
30571;SDS011;17348;50.948;10.696;2023-08-20T17:27:04;15.32;;;7.70;;
30571;SDS011;17348;50.948;10.696;2023-08-20T17:30:07;15.88;;;8.30;;
30571;SDS011;17348;50.948;10.696;2023-08-20T17:33:13;21.85;;;9.05;;
30571;SDS011;17348;50.948;10.696;2023-08-20T17:36:17;16.25;;;8.50;;
30571;SDS011;17348;50.948;10.696;2023-08-20T17:39:19;17.60;;;8.15;;
30571;SDS011;17348;50.948;10.696;2023-08-20T17:42:21;14.27;;;7.43;;
30571;SDS011;17348;50.948;10.696;2023-08-20T17:45:24;17.05;;;7.93;;
30571;SDS011;17348;50.948;10.696;2023-08-20T17:48:27;19.30;;;8.38;;
30571;SDS011;17348;50.948;10.696;2023-08-20T17:51:30;11.00;;;7.18;;
30571;SDS011;17348;50.948;10.696;2023-08-20T17:54:32;14.32;;;7.85;;
30571;SDS011;17348;50.948;10.696;2023-08-20T17:57:34;12.13;;;7.78;;
30571;SDS011;17348;50.948;10.696;2023-08-20T18:00:37;12.98;;;8.15;;